M I D A S
Marine Information and Data Acquisition System
Tripno 388 of the Zeeleeuw from 2002-09-30 08:13:18 to 2002-09-30 14:28:29
Back to CruiseResearch ActivitiesStationsMapUnderway DataData graphs

EquipmentUnitsComment
TimeDGPSUTC
LatitudeDGPSDM.mWGS84
LongitudeDGPSDM.mWGS84
HeadingGyrodeg 
SOGDGPSknotsSpeed over ground
COGDGPSdegCourse over ground
DepthEcho soundermeters200 kHz
Missing or incorrect values are displayed as -999
Navigation data collected by the RV Zeeleeuw from 2002-09-30 08:13:18 to 2002-09-30 14:28:29
Time Latitude Longitude Heading SOG COG Depth
2002-09-30 08:14:27 51°13.622 2°56.008 137.8 4 135.1 10.8
2002-09-30 08:15:30 51°13.576 2°56.09 129.7 4.1 127.1 11.2
2002-09-30 08:16:31 51°13.541 2°56.19 108.7 4.2 106.3 11.3
2002-09-30 08:17:29 51°13.552 2°56.266 59.3 1.9 57.4 8.9
2002-09-30 08:18:31 51°13.556 2°56.274 30.2 0.8 214.3 9
2002-09-30 08:19:31 51°13.542 2°56.263 17.7 0.1 226.4 8.9
2002-09-30 08:20:29 51°13.548 2°56.264 359.3 0.2 152.8 9
2002-09-30 08:21:31 51°13.531 2°56.265 4.2 0.9 185.9 -999
2002-09-30 08:22:32 51°13.535 2°56.258 336.5 0.8 332.6 8.6
2002-09-30 08:23:34 51°13.531 2°56.259 327.5 0.1 310 -999
2002-09-30 08:24:33 51°13.545 2°56.218 293.2 2.8 289.7 8.6
2002-09-30 08:25:33 51°13.567 2°56.125 296.3 4.3 292.2 11.1
2002-09-30 08:26:32 51°13.601 2°56.014 303.5 5 299.6 11
2002-09-30 08:27:31 51°13.645 2°55.899 305 5.2 301.6 11
2002-09-30 08:28:31 51°13.694 2°55.782 314 5.4 307.8 14.1
2002-09-30 08:29:32 51°13.761 2°55.686 331.7 5.4 325.6 11.3
2002-09-30 08:30:37 51°13.854 2°55.613 337.3 6.1 334.1 10.8
2002-09-30 08:31:42 51°13.958 2°55.534 338.3 6.5 335 10.7
2002-09-30 08:32:42 51°14.057 2°55.462 339.8 6.6 335.8 10.9
2002-09-30 08:33:42 51°14.159 2°55.385 336.2 7 332.5 10.9
2002-09-30 08:34:42 51°14.263 2°55.263 317.7 8.2 314.7 10.9
2002-09-30 08:35:42 51°14.347 2°55.083 307 8.7 303.4 11.2
2002-09-30 08:36:43 51°14.434 2°54.856 298.7 10.5 295.4 10.7
2002-09-30 08:37:42 51°14.459 2°54.583 274.7 10.8 271.1 10.4
2002-09-30 08:38:43 51°14.401 2°54.31 242.7 11.3 240.8 10.1
2002-09-30 08:39:43 51°14.304 2°54.03 244.2 12.6 242.1 9.8
2002-09-30 08:40:43 51°14.204 2°53.731 243.3 12.9 241.6 9.9
2002-09-30 08:41:42 51°14.087 2°53.443 239 13.2 236.7 10
2002-09-30 08:42:43 51°13.973 2°53.136 243.3 13.3 240.9 10.3
2002-09-30 08:43:42 51°13.868 2°52.832 242.8 13.3 240.6 10.6
2002-09-30 08:44:42 51°13.762 2°52.522 245.2 13.3 242.8 10.7
2002-09-30 08:45:42 51°13.657 2°52.203 244.2 13.8 241.8 10.9
2002-09-30 08:46:42 51°13.544 2°51.879 243.7 14 241.5 10.9
2002-09-30 08:47:42 51°13.433 2°51.556 243.7 14 241.1 11.1
2002-09-30 08:48:42 51°13.323 2°51.227 244.3 14 242 11.1
2002-09-30 08:49:42 51°13.21 2°50.902 243 14 240.6 11.3
2002-09-30 08:50:42 51°13.098 2°50.574 244.3 14.1 241.8 11.5
2002-09-30 08:51:42 51°12.988 2°50.246 244.7 14 242.2 11.6
2002-09-30 08:52:42 51°12.875 2°49.92 244.5 14 242.1 11.7
2002-09-30 08:53:46 51°12.756 2°49.572 242.8 14 240.4 11.8
2002-09-30 08:54:46 51°12.655 2°49.236 249.8 14 247.3 12
2002-09-30 08:55:46 51°12.561 2°48.895 248.5 14 246.2 12.2
2002-09-30 08:56:46 51°12.463 2°48.558 246.8 14 244.4 12.4
2002-09-30 08:57:46 51°12.367 2°48.218 248.5 14.1 246.1 12.5
2002-09-30 08:58:45 51°12.27 2°47.883 246.3 14.1 244 12.7
2002-09-30 08:59:47 51°12.169 2°47.532 248.7 14.1 246.2 12.8
2002-09-30 09:00:47 51°12.072 2°47.192 247.8 14.1 245.3 12.8
2002-09-30 09:01:47 51°11.978 2°46.85 249.5 14.1 247.2 12.9
2002-09-30 09:02:47 51°11.89 2°46.504 250.3 14.1 248.1 13
2002-09-30 09:03:47 51°11.802 2°46.157 250.5 14.1 248.4 13
2002-09-30 09:04:47 51°11.712 2°45.81 251.2 14.2 248.7 13
2002-09-30 09:05:47 51°11.635 2°45.455 254 14.2 251.8 13
2002-09-30 09:06:47 51°11.559 2°45.098 253.5 14.2 250.9 12.9
2002-09-30 09:07:47 51°11.48 2°44.743 251.3 14.2 248.9 12.9
2002-09-30 09:08:46 51°11.401 2°44.394 251.8 14.3 249.7 12.9
2002-09-30 09:09:47 51°11.321 2°44.032 253.8 14.3 251.7 12.8
2002-09-30 09:10:47 51°11.241 2°43.675 251.7 14.3 249.3 12.8
2002-09-30 09:11:47 51°11.16 2°43.318 252.7 14.3 250.3 12.8
2002-09-30 09:12:47 51°11.083 2°42.96 253.5 14.3 251.3 12.8
2002-09-30 09:13:46 51°11.005 2°42.61 253 14.2 250.8 12.7
2002-09-30 09:14:47 51°10.929 2°42.246 253.3 14.3 251.4 12.6
2002-09-30 09:15:47 51°10.848 2°41.89 252.5 14.3 250.4 12.7
2002-09-30 09:16:46 51°10.77 2°41.538 254.5 14.4 252.4 12.7
2002-09-30 09:17:47 51°10.694 2°41.17 253 14.4 251.2 12.5
2002-09-30 09:18:47 51°10.614 2°40.812 252.7 14.4 250.7 12.7
2002-09-30 09:19:47 51°10.537 2°40.454 252.8 14.3 251.1 13.1
2002-09-30 09:20:47 51°10.462 2°40.096 253 14.2 251.3 13.5
2002-09-30 09:21:47 51°10.381 2°39.741 253.2 14.3 251.2 13.9
2002-09-30 09:22:47 51°10.307 2°39.382 252.7 14.3 250.8 14.6
2002-09-30 09:23:46 51°10.232 2°39.03 258 14.2 256 15
2002-09-30 09:24:47 51°10.204 2°38.656 251.2 13.7 250.7 15.7
2002-09-30 09:25:47 51°10.048 2°38.391 221.3 13.9 219.9 15.9
2002-09-30 09:26:47 51°9.92 2°38.225 207.8 7.2 209.5 15.5
2002-09-30 09:27:46 51°9.838 2°38.176 196.5 4.2 200.2 14.9
2002-09-30 09:28:47 51°9.788 2°38.134 205 2.9 214.7 14.5
2002-09-30 09:29:47 51°9.757 2°38.09 214 2.3 228.1 14.3
2002-09-30 09:30:46 51°9.735 2°38.047 222.3 2 238.3 14.2
2002-09-30 09:31:47 51°9.722 2°38.003 228.3 1.7 247.3 14.3
2002-09-30 09:32:47 51°9.713 2°37.962 232.2 1.6 252.6 14.4
2002-09-30 09:33:46 51°9.707 2°37.924 235.3 1.5 255.8 14.4
2002-09-30 09:34:47 51°9.702 2°37.886 238.3 1.4 260 14.5
2002-09-30 09:35:47 51°9.698 2°37.851 239.3 1.3 260.3 14.6
2002-09-30 09:36:46 51°9.696 2°37.816 239.8 1.3 263.1 14.7
2002-09-30 09:37:47 51°9.693 2°37.782 241 1.3 264.1 14.7
2002-09-30 09:38:46 51°9.691 2°37.749 242.3 1.2 264.9 14.9
2002-09-30 09:39:47 51°9.689 2°37.716 243.3 1.2 265.6 15.1
2002-09-30 09:40:47 51°9.688 2°37.684 245.5 1.2 266.8 15.1
2002-09-30 09:41:47 51°9.687 2°37.652 245.8 1.2 267.5 15.2
2002-09-30 09:42:47 51°9.686 2°37.62 246 1.2 269.1 15.4
2002-09-30 09:43:47 51°9.686 2°37.589 246.8 1.2 268.9 15.5
2002-09-30 09:44:47 51°9.685 2°37.558 246.7 1.2 267.5 15.6
2002-09-30 09:45:47 51°9.684 2°37.527 247.3 1.2 267.5 15.8
2002-09-30 09:46:47 51°9.678 2°37.476 246.2 2.5 254 15.8
2002-09-30 09:47:47 51°9.662 2°37.402 245.7 3.2 250.6 15.6
2002-09-30 09:48:47 51°9.651 2°37.313 264 3.4 264.5 15.9
2002-09-30 09:49:46 51°9.654 2°37.231 288.3 3 283.2 15.9
2002-09-30 09:50:47 51°9.675 2°37.162 310.3 2.9 301.5 15.9
2002-09-30 09:51:47 51°9.705 2°37.1 323 3 312.2 16.2
2002-09-30 09:52:47 51°9.743 2°37.049 337.5 3 324.6 16.5
2002-09-30 09:53:47 51°9.786 2°37.014 355 2.9 339.4 16.7
2002-09-30 09:54:47 51°9.831 2°37.002 16.5 2.6 359.7 16.8
2002-09-30 09:55:47 51°9.87 2°37.017 37.8 2.3 21.4 16.9
2002-09-30 09:56:47 51°9.9 2°37.047 55.5 2.1 40.6 17.2
2002-09-30 09:57:47 51°9.923 2°37.087 66.2 2.1 52.6 17.2
2002-09-30 09:58:47 51°9.941 2°37.134 76.2 2 64 17.3
2002-09-30 09:59:47 51°9.951 2°37.18 85.5 1.9 74.9 17.3
2002-09-30 10:00:47 51°9.957 2°37.233 93.2 1.9 83.5 17.3
2002-09-30 10:01:47 51°9.958 2°37.281 100.3 1.9 93.1 17.3
2002-09-30 10:02:46 51°9.953 2°37.328 107.2 1.9 101.7 17.1
2002-09-30 10:03:47 51°9.943 2°37.377 113.5 1.9 111 16.9
2002-09-30 10:04:46 51°9.93 2°37.421 120.2 1.8 118.2 16.8
2002-09-30 10:05:47 51°9.912 2°37.463 127.3 1.9 128.6 16.7
2002-09-30 10:06:47 51°9.889 2°37.498 134.8 1.9 138.9 16.5
2002-09-30 10:07:47 51°9.861 2°37.527 144.3 2.1 151.9 16.3
2002-09-30 10:08:47 51°9.828 2°37.547 155 2.2 165.3 16.2
2002-09-30 10:09:46 51°9.791 2°37.554 168.5 2.4 180 16
2002-09-30 10:10:47 51°9.749 2°37.543 182.8 2.6 196.5 16
2002-09-30 10:11:47 51°9.71 2°37.512 198.7 2.8 213.4 15.9
2002-09-30 10:12:47 51°9.678 2°37.468 211.2 2.4 228.1 15.6
2002-09-30 10:13:47 51°9.651 2°37.42 216 2.3 233.2 15.6
2002-09-30 10:14:47 51°9.634 2°37.369 232.5 2.1 245.7 15.3
2002-09-30 10:15:47 51°9.623 2°37.319 240.5 1.9 253.8 15.4
2002-09-30 10:16:47 51°9.616 2°37.272 244.3 1.8 257.9 15.6
2002-09-30 10:17:47 51°9.611 2°37.226 246.7 1.7 259.9 15.6
2002-09-30 10:18:47 51°9.606 2°37.183 248.3 1.6 263 15.6
2002-09-30 10:19:47 51°9.602 2°37.141 249.8 1.6 264.2 15.6
2002-09-30 10:20:46 51°9.6 2°37.101 250.5 1.5 264.7 15.5
2002-09-30 10:21:47 51°9.597 2°37.061 250.5 1.5 266.5 15.5
2002-09-30 10:22:47 51°9.595 2°37.022 251.2 1.4 266.4 15.5
2002-09-30 10:23:47 51°9.594 2°36.984 252 1.4 267.4 15.5
2002-09-30 10:24:47 51°9.591 2°36.948 252.3 1.4 265.6 15.4
2002-09-30 10:25:47 51°9.59 2°36.912 253.2 1.4 268.9 15.5
2002-09-30 10:26:47 51°9.589 2°36.876 254.5 1.4 269.4 15.4
2002-09-30 10:27:47 51°9.588 2°36.84 255.3 1.4 270 15.2
2002-09-30 10:28:47 51°9.588 2°36.804 255.5 1.4 268.5 15.5
2002-09-30 10:29:47 51°9.588 2°36.767 256.2 1.4 268.8 15.2
2002-09-30 10:30:47 51°9.587 2°36.73 256.7 1.4 267.2 15.1
2002-09-30 10:31:47 51°9.586 2°36.694 257.5 1.4 268.6 15.6
2002-09-30 10:32:46 51°9.585 2°36.658 258.8 1.4 271 16
2002-09-30 10:33:47 51°9.585 2°36.62 259.7 1.4 271.5 15.9
2002-09-30 10:34:47 51°9.586 2°36.583 259.2 1.4 273.7 15.8
2002-09-30 10:35:46 51°9.586 2°36.547 259.2 1.3 270.5 16.2
2002-09-30 10:36:47 51°9.585 2°36.51 259.2 1.4 270.3 15.7
2002-09-30 10:37:47 51°9.585 2°36.474 259.5 1.4 270.6 16.3
2002-09-30 10:38:47 51°9.585 2°36.438 260.2 1.4 271.5 16
2002-09-30 10:39:47 51°9.585 2°36.4 260.3 1.4 271 16.4
2002-09-30 10:40:46 51°9.584 2°36.364 260.8 1.5 269.2 16.2
2002-09-30 10:41:47 51°9.582 2°36.315 258.8 1.9 264.5 16.4
2002-09-30 10:42:47 51°9.579 2°36.267 257.3 1.8 265.5 15.7
2002-09-30 10:43:47 51°9.574 2°36.21 258.2 2.6 261.9 16.6
2002-09-30 10:44:47 51°9.569 2°36.128 272.2 3.3 268.4 16.6
2002-09-30 10:45:47 51°9.576 2°36.041 295 3.3 284.4 16.2
2002-09-30 10:46:47 51°9.595 2°35.961 309.8 3.1 295.6 16.4
2002-09-30 10:47:47 51°9.62 2°35.897 322.2 2.7 304.5 16.7
2002-09-30 10:48:47 51°9.647 2°35.844 333.7 2.5 313.1 17.5
2002-09-30 10:49:47 51°9.677 2°35.801 346.2 2.3 322 17.6
2002-09-30 10:50:47 51°9.708 2°35.769 0.3 2.2 333 17.8
2002-09-30 10:51:47 51°9.74 2°35.749 14.8 2 344.2 18
2002-09-30 10:52:47 51°9.77 2°35.742 28.2 1.8 355.8 17.9
2002-09-30 10:53:47 51°9.798 2°35.747 41.3 1.9 15.7 18
2002-09-30 10:54:47 51°9.827 2°35.772 55.8 2.1 37.1 18
2002-09-30 10:55:47 51°9.849 2°35.813 70.3 2 57.6 18.1
2002-09-30 10:56:47 51°9.861 2°35.861 83.2 2 75.7 17.9
2002-09-30 10:57:47 51°9.864 2°35.913 93 2 90 17.8
2002-09-30 10:58:47 51°9.859 2°35.967 101.7 2 102.7 17.7
2002-09-30 10:59:47 51°9.846 2°36.019 111.8 2.1 116.5 17.5
2002-09-30 11:00:49 51°9.824 2°36.068 124 2.3 132.3 17.4
2002-09-30 11:01:49 51°9.794 2°36.107 136.8 2.4 147.2 16.9
2002-09-30 11:02:49 51°9.755 2°36.133 151.3 2.7 163.8 17.1
2002-09-30 11:03:49 51°9.707 2°36.142 167.3 3 180 17
2002-09-30 11:04:49 51°9.656 2°36.128 184.8 3.2 197.3 16.6
2002-09-30 11:05:49 51°9.611 2°36.09 201 3 215.1 16.9
2002-09-30 11:06:49 51°9.574 2°36.038 214.3 2.9 226.2 16.7
2002-09-30 11:07:50 51°9.543 2°35.976 226 2.9 235.7 16.3
2002-09-30 11:08:49 51°9.522 2°35.911 247.7 2.7 250.9 15.7
2002-09-30 11:09:49 51°9.515 2°35.843 273.7 2.6 267.2 16.6
2002-09-30 11:10:49 51°9.517 2°35.777 290 2.3 276.5 16.1
2002-09-30 11:11:50 51°9.523 2°35.719 299.7 2.1 280.9 16.8
2002-09-30 11:12:49 51°9.53 2°35.668 307.5 2 286.3 16.2
2002-09-30 11:13:49 51°9.548 2°35.607 320.8 2.8 300.8 17.3
2002-09-30 11:14:49 51°9.58 2°35.546 338.8 3.1 317.5 17.6
2002-09-30 11:15:50 51°9.624 2°35.502 358.5 3.1 336.4 17.6
2002-09-30 11:16:50 51°9.672 2°35.486 19 2.8 357 17.8
2002-09-30 11:17:50 51°9.712 2°35.495 40.3 2.2 17.4 18.2
2002-09-30 11:18:49 51°9.739 2°35.521 58.5 1.9 41.3 18.1
2002-09-30 11:19:49 51°9.759 2°35.562 70.8 2 60.8 18.1
2002-09-30 11:20:50 51°9.77 2°35.614 83.5 2.1 78.2 18.1
2002-09-30 11:21:50 51°9.771 2°35.67 93.7 2.1 92.7 17.9
2002-09-30 11:22:50 51°9.765 2°35.727 100.5 2.2 102.6 17.7
2002-09-30 11:23:50 51°9.753 2°35.783 106.8 2.3 111.6 17.7
2002-09-30 11:24:49 51°9.737 2°35.836 113.2 2.3 121.1 17.7
2002-09-30 11:25:50 51°9.713 2°35.887 119.7 2.4 129.6 17.3
2002-09-30 11:26:50 51°9.685 2°35.934 125 2.5 136.1 17.4
2002-09-30 11:27:50 51°9.653 2°35.976 131.3 2.5 143.6 16.6
2002-09-30 11:28:50 51°9.614 2°36.009 145.5 2.7 159.2 16.8
2002-09-30 11:29:50 51°9.567 2°36.022 162.5 3 177.7 16
2002-09-30 11:30:49 51°9.516 2°36.01 181.3 3.3 195.9 16.4
2002-09-30 11:31:50 51°9.463 2°35.969 201 3.6 213.4 16.1
2002-09-30 11:32:50 51°9.417 2°35.904 219.2 3.8 227.9 15.7
2002-09-30 11:33:49 51°9.382 2°35.821 235.7 3.9 241 15.8
2002-09-30 11:34:49 51°9.358 2°35.735 245.8 3.3 249.6 15.7
2002-09-30 11:35:49 51°9.343 2°35.655 254.2 3.1 255.7 15.5
2002-09-30 11:36:50 51°9.333 2°35.576 262.8 3 260.8 15.4
2002-09-30 11:37:50 51°9.331 2°35.5 287.5 2.8 275.1 15.9
2002-09-30 11:38:50 51°9.342 2°35.432 310.7 2.6 288.8 16
2002-09-30 11:39:50 51°9.361 2°35.373 325.5 2.4 300.9 16
2002-09-30 11:40:50 51°9.384 2°35.323 339 2.3 311.2 16.5
2002-09-30 11:41:50 51°9.411 2°35.284 352.7 2.1 321.6 16.5
2002-09-30 11:42:50 51°9.439 2°35.257 7.7 1.9 334.8 17
2002-09-30 11:43:50 51°9.468 2°35.243 22.8 1.7 348.8 17.5
2002-09-30 11:44:50 51°9.495 2°35.241 36.5 1.5 3 17.6
2002-09-30 11:45:50 51°9.518 2°35.248 45.8 1.4 14.3 17.6
2002-09-30 11:46:50 51°9.539 2°35.26 52.7 1.3 23.6 17.8
2002-09-30 11:47:50 51°9.558 2°35.277 58.8 1.3 33.3 17.9
2002-09-30 11:48:50 51°9.574 2°35.297 65.3 1.2 43 17.8
2002-09-30 11:49:49 51°9.587 2°35.321 71.8 1.1 53.6 17.8
2002-09-30 11:50:50 51°9.597 2°35.349 78 1.3 65.7 17.7
2002-09-30 11:51:50 51°9.603 2°35.384 84.2 1.4 77.2 17.6
2002-09-30 11:52:50 51°9.606 2°35.422 88.8 1.5 85.6 17.5
2002-09-30 11:53:50 51°9.606 2°35.462 94 1.5 95.9 17.7
2002-09-30 11:54:50 51°9.601 2°35.503 99.8 1.6 104.1 17.7
2002-09-30 11:55:50 51°9.592 2°35.543 105.8 1.5 115.6 17.6
2002-09-30 11:56:50 51°9.581 2°35.568 112.2 1 132.7 17.3
2002-09-30 11:57:50 51°9.57 2°35.585 114.7 0.8 145.7 17.2
2002-09-30 11:58:50 51°9.56 2°35.59 115.3 0.5 175.1 17
2002-09-30 11:59:50 51°9.553 2°35.587 113.7 0.4 205.3 17.2
2002-09-30 12:00:49 51°9.548 2°35.581 110.8 0.4 234.2 17.3
2002-09-30 12:01:49 51°9.545 2°35.57 108.3 0.5 247.9 17.3
2002-09-30 12:02:46 51°9.543 2°35.559 106 0.5 258.9 17.2
2002-09-30 12:03:55 51°9.54 2°35.543 106 0.6 256.3 17.1
2002-09-30 12:04:55 51°9.539 2°35.528 107 0.6 261.9 17.1
2002-09-30 12:05:55 51°9.537 2°35.512 106.2 0.6 264.6 17.4
2002-09-30 12:06:54 51°9.537 2°35.495 101.5 0.7 273.7 17.4
2002-09-30 12:07:54 51°9.538 2°35.476 97.8 0.7 269.7 17.5
2002-09-30 12:08:55 51°9.537 2°35.458 95.5 0.7 266.1 17.5
2002-09-30 12:09:56 51°9.537 2°35.439 95 0.7 265.5 17.4
2002-09-30 12:10:54 51°9.537 2°35.422 96 0.7 265.5 17.5
2002-09-30 12:12:02 51°9.537 2°35.402 96.7 0.7 265.2 17.7
2002-09-30 12:13:03 51°9.534 2°35.382 96.5 0.7 261.3 17.8
2002-09-30 12:14:02 51°9.533 2°35.364 95.5 0.7 260 17.5
2002-09-30 12:15:02 51°9.531 2°35.348 96.3 0.7 259.7 17.4
2002-09-30 12:16:02 51°9.53 2°35.332 97.3 0.6 257.3 17.7
2002-09-30 12:17:02 51°9.528 2°35.316 97.3 0.6 263.5 17.6
2002-09-30 12:18:02 51°9.526 2°35.3 97.3 0.6 262.5 17.8
2002-09-30 12:19:07 51°9.525 2°35.283 98.7 0.6 264.3 17.7
2002-09-30 12:20:07 51°9.523 2°35.267 99.7 0.6 264.4 17.7
2002-09-30 12:21:07 51°9.521 2°35.25 100.3 0.7 261.1 17.7
2002-09-30 12:22:07 51°9.52 2°35.233 101.3 0.7 257 17.7
2002-09-30 12:23:06 51°9.516 2°35.239 94.7 3.3 95.6 17.7
2002-09-30 12:24:06 51°9.517 2°35.43 91.7 9.4 89.8 17
2002-09-30 12:25:07 51°9.519 2°35.705 87 10.4 84.7 16.3
2002-09-30 12:26:07 51°9.53 2°35.982 90.8 10.5 88.4 16
2002-09-30 12:27:07 51°9.537 2°36.261 87.7 10.5 85.2 15.6
2002-09-30 12:28:07 51°9.546 2°36.538 88.8 10.6 87 15.7
2002-09-30 12:29:07 51°9.555 2°36.821 85.8 11.4 84.3 15.2
2002-09-30 12:30:07 51°9.6 2°37.145 79.3 12.9 76.1 15.2
2002-09-30 12:31:07 51°9.651 2°37.48 80 13 76.7 14.7
2002-09-30 12:32:07 51°9.702 2°37.815 80.5 12.9 76.9 14
2002-09-30 12:33:07 51°9.747 2°38.151 82.7 12.9 79.1 13.2
2002-09-30 12:34:06 51°9.792 2°38.48 80.7 13 77.1 12.4
2002-09-30 12:35:05 51°9.84 2°38.811 80 13 76.7 11.6
2002-09-30 12:36:07 51°9.885 2°39.158 81.8 12.9 78.9 11
2002-09-30 12:37:07 51°9.928 2°39.494 81.5 13 78.7 10.6
2002-09-30 12:38:05 51°10.001 2°39.802 66 13 61.8 10.5
2002-09-30 12:39:08 51°10.106 2°40.123 67.2 13 62.7 10.7
2002-09-30 12:40:06 51°10.199 2°40.423 68 13.1 63.7 10.8
2002-09-30 12:41:07 51°10.294 2°40.74 69.3 13 65.2 10.9
2002-09-30 12:42:05 51°10.38 2°41.045 69.5 13 65.6 11
2002-09-30 12:43:07 51°10.478 2°41.367 68.5 13 63.9 11.1
2002-09-30 12:44:05 51°10.568 2°41.667 68.5 13 64.4 11.2
2002-09-30 12:45:07 51°10.663 2°41.99 70.3 13 66.5 11.3
2002-09-30 12:46:06 51°10.751 2°42.299 68.8 13 64.6 11.4
2002-09-30 12:47:08 51°10.845 2°42.613 70.5 11.4 66.1 11.5
2002-09-30 12:48:07 51°10.905 2°42.75 32.8 4.4 24.4 12
2002-09-30 12:49:07 51°10.949 2°42.767 41.5 1.3 6.6 12.2
2002-09-30 12:50:07 51°10.964 2°42.763 39.2 0.9 345.3 12.2
2002-09-30 12:51:08 51°10.976 2°42.758 50.2 0.6 341.6 12.1
2002-09-30 12:52:12 51°10.984 2°42.752 60 0.4 327.3 12.3
2002-09-30 12:53:22 51°10.989 2°42.745 69 0.3 304 12.3
2002-09-30 12:54:21 51°10.992 2°42.737 74.7 0.4 287.7 12.4
2002-09-30 12:55:23 51°10.992 2°42.727 79.2 0.4 279.6 12.3
2002-09-30 12:56:23 51°10.993 2°42.715 83.3 0.5 273.8 12.4
2002-09-30 12:57:27 51°10.995 2°42.7 86.5 0.5 274.5 12.3
2002-09-30 12:58:29 51°10.995 2°42.686 89.8 0.5 270 12.4
2002-09-30 12:59:29 51°10.994 2°42.671 93 0.6 268.1 12.4
2002-09-30 13:00:32 51°10.994 2°42.655 94.8 0.6 266.4 12.3
2002-09-30 13:01:30 51°10.994 2°42.639 97.7 0.6 266.4 12.4
2002-09-30 13:02:31 51°10.993 2°42.624 100 0.6 263.9 12.4
2002-09-30 13:03:31 51°10.992 2°42.607 103.3 0.6 264.6 12.4
2002-09-30 13:04:31 51°10.991 2°42.59 105.5 0.7 265.5 12.4
2002-09-30 13:05:31 51°10.99 2°42.572 105.3 0.7 267.6 12.4
2002-09-30 13:06:31 51°10.991 2°42.553 103.7 0.7 276.2 12.4
2002-09-30 13:07:31 51°10.992 2°42.534 103.5 0.7 271.5 12.4
2002-09-30 13:08:32 51°10.992 2°42.515 105 0.7 273.3 12.5
2002-09-30 13:09:31 51°10.992 2°42.497 107.2 0.7 270.7 12.5
2002-09-30 13:10:31 51°10.989 2°42.474 125.8 1 251.7 12.3
2002-09-30 13:11:31 51°10.988 2°42.437 173.7 1.4 280.2 12.6
2002-09-30 13:12:31 51°10.993 2°42.406 182 1.2 289.3 12.5
2002-09-30 13:13:32 51°11.002 2°42.378 193.2 1.1 295.4 12.4
2002-09-30 13:14:31 51°11.009 2°42.353 210.5 1 297.6 12.5
2002-09-30 13:15:31 51°11.014 2°42.332 226.5 0.9 279 12.5
2002-09-30 13:16:31 51°11.011 2°42.299 235.7 1.6 255.4 12.5
2002-09-30 13:17:31 51°11 2°42.252 236.3 2.1 247.7 12.5
2002-09-30 13:18:31 51°10.983 2°42.198 230.7 2.5 240.7 12.5
2002-09-30 13:19:31 51°10.96 2°42.139 222.8 2.7 234.5 12.6
2002-09-30 13:20:31 51°10.928 2°42.085 205.7 2.8 220.2 12.5
2002-09-30 13:21:31 51°10.889 2°42.041 198 3 211.1 12.6
2002-09-30 13:22:31 51°10.845 2°42.005 181.8 2.7 200.7 12.6
2002-09-30 13:23:31 51°10.81 2°42 144 1.8 170.9 12.6
2002-09-30 13:24:31 51°10.785 2°42.014 128.7 1.4 153.8 12.4
2002-09-30 13:25:31 51°10.767 2°42.035 119.2 1.3 138 12.2
2002-09-30 13:26:30 51°10.754 2°42.057 115.7 1.1 132 12.2
2002-09-30 13:27:32 51°10.743 2°42.077 114.7 0.9 129.9 12.2
2002-09-30 13:28:32 51°10.736 2°42.094 99.7 0.7 107.4 12.1
2002-09-30 13:29:32 51°10.734 2°42.113 91.3 0.7 92.1 12.1
2002-09-30 13:30:31 51°10.734 2°42.132 92 0.7 90.7 12.1
2002-09-30 13:31:32 51°10.733 2°42.151 93.8 0.7 94.5 12
2002-09-30 13:32:32 51°10.732 2°42.17 95 0.7 101.4 12.1
2002-09-30 13:33:33 51°10.73 2°42.188 97.3 0.7 105.4 11.9
2002-09-30 13:34:33 51°10.728 2°42.206 98.2 0.7 102.7 12
2002-09-30 13:35:32 51°10.726 2°42.223 98.5 0.7 106.5 12.1
2002-09-30 13:36:33 51°10.722 2°42.242 99.7 0.7 108.4 12
2002-09-30 13:37:32 51°10.729 2°42.29 66.2 4.3 63 11.8
2002-09-30 13:38:33 51°10.813 2°42.537 70 12.4 65.7 11.9
2002-09-30 13:39:33 51°10.897 2°42.854 71.8 13.1 67.9 11.9
2002-09-30 13:40:32 51°10.98 2°43.171 70.8 13.2 67.2 12.1
2002-09-30 13:41:33 51°11.067 2°43.498 70.5 13.2 66.1 12.2
2002-09-30 13:42:32 51°11.155 2°43.811 71.7 13.2 67.4 12.3
2002-09-30 13:43:32 51°11.237 2°44.134 71.7 13.2 67.8 12.3
2002-09-30 13:44:33 51°11.324 2°44.461 71.3 13.2 67.1 12.4
2002-09-30 13:45:32 51°11.406 2°44.778 72.8 13.1 68.5 12.4
2002-09-30 13:46:32 51°11.488 2°45.099 70.3 13.1 66 12.5
2002-09-30 13:47:32 51°11.58 2°45.414 69.8 13.1 65.4 12.7
2002-09-30 13:48:32 51°11.67 2°45.735 70 13.2 66.1 12.6
2002-09-30 13:49:33 51°11.765 2°46.056 70 13.2 65.6 12.7
2002-09-30 13:50:33 51°11.852 2°46.377 70.7 13.1 66.5 12.7
2002-09-30 13:51:33 51°11.935 2°46.7 70.8 13.2 66.9 12.6
2002-09-30 13:52:33 51°12.037 2°47.01 65.5 13.2 61.2 12.6
2002-09-30 13:53:32 51°12.136 2°47.318 68.3 13.2 64.2 12.6
2002-09-30 13:54:32 51°12.235 2°47.632 67.7 13.2 63.4 12.4
2002-09-30 13:55:32 51°12.33 2°47.948 69 13.2 65.3 12.4
2002-09-30 13:56:32 51°12.425 2°48.264 67.3 13.2 63.6 12.2
2002-09-30 13:57:32 51°12.523 2°48.578 68.7 13.3 65 12.1
2002-09-30 13:58:33 51°12.619 2°48.9 67.2 13.2 63.5 11.9
2002-09-30 13:59:33 51°12.717 2°49.215 68 13.3 64.2 11.7
2002-09-30 14:00:32 51°12.81 2°49.529 67.8 13.4 64.1 11.6
2002-09-30 14:01:32 51°12.908 2°49.844 67.3 13.3 63.4 11.5
2002-09-30 14:02:32 51°13.007 2°50.161 68.2 13.3 64.4 11.4
2002-09-30 14:03:32 51°13.101 2°50.479 65 13.3 61.8 11.3
2002-09-30 14:04:32 51°13.224 2°50.774 60.5 13.3 56 11.1
2002-09-30 14:05:33 51°13.343 2°51.079 61.7 13.3 57.6 11.1
2002-09-30 14:06:33 51°13.464 2°51.377 61.7 13.4 57.5 11
2002-09-30 14:07:33 51°13.585 2°51.674 62 13.3 58 11
2002-09-30 14:08:32 51°13.697 2°51.973 62.3 13.4 58.4 10.6
2002-09-30 14:09:33 51°13.817 2°52.28 60.7 13.4 56.6 10.9
2002-09-30 14:10:32 51°13.931 2°52.58 64.7 13.5 60.8 10.8
2002-09-30 14:11:33 51°14.041 2°52.899 64.3 13.5 60.8 10.6
2002-09-30 14:12:33 51°14.15 2°53.212 65 13.5 61.6 10.1
2002-09-30 14:13:32 51°14.249 2°53.528 70.5 13.6 67.3 9.8
2002-09-30 14:14:32 51°14.338 2°53.857 60.8 13.5 58.2 9.7
2002-09-30 14:15:33 51°14.444 2°54.179 73 13.4 69.1 9.6
2002-09-30 14:16:32 51°14.472 2°54.503 93.8 12.1 90.8 10
2002-09-30 14:17:32 51°14.444 2°54.82 108.5 12.1 104.5 10.2
2002-09-30 14:18:32 51°14.352 2°55.105 127.2 12.1 123.7 10.1
2002-09-30 14:19:32 51°14.246 2°55.284 138.7 7.9 135.9 10.5
2002-09-30 14:20:31 51°14.159 2°55.4 151 6.3 146.7 10.5
2002-09-30 14:21:32 51°14.076 2°55.461 160 5.1 157.6 10.5
2002-09-30 14:22:36 51°13.993 2°55.513 161 5 157.1 10.6
2002-09-30 14:23:37 51°13.916 2°55.563 162.2 4.7 159.1 -999
2002-09-30 14:24:37 51°13.848 2°55.611 158.8 4.3 155.6 -999
2002-09-30 14:25:37 51°13.785 2°55.653 158.8 3.9 156.7 -999
2002-09-30 14:26:37 51°13.736 2°55.711 138 3.6 135.9 -999
2002-09-30 14:27:37 51°13.699 2°55.786 124.3 3.6 121.8 -999